• Join FlightAware (Why Join?)
  • Login
  • US Flag 
12:35PM EDT


 

Airport Tracker/Info


-or-


 

Live Flight TrackerFlight Track Log ✈ XOJ552 ✈ 27-Jan-2014 ✈ KRSW - KOAK

Flight Track Log - Related Links

Times and Time Zones

All times are in EST time to prevent confusion due to time zone crossing. See the XOJ552 flight status page for this flight to view local times or setup timezone preferences in your user account.

Time Position Orientation Groundspeed Altitude Reporting Facility
EST Latitude Longitude Course Direction KTS MPH feet Rate Location/Type
01:35PM 26.4536 -81.8731 230° Southwest 220 253 5,800  Level Miami Center
01:36PM 26.4078 -81.9336 230° Southwest 251 289 9,600 3,600 Climbing Miami Center
01:37PM 26.3781 -82.0089 246° West 268 308 13,000 3,300 Climbing Miami Center
01:38PM 26.4106 -82.0914 294° West 256 295 16,300 2,700 Climbing Miami Center
01:39PM 26.4389 -82.1739 291° West 283 326 18,400 2,220 Climbing Miami Center
01:40PM 26.4772 -82.2658 295° West 315 362 20,800 2,340 Climbing Miami Center
01:41PM 26.5133 -82.3603 293° West 326 375 23,100 2,160 Climbing Miami Center
01:42PM 26.5494 -82.4572 293° West 336 387 25,200 1,920 Climbing Miami Center
01:43PM 26.5872 -82.5589 293° West 342 394 27,000 1,980 Climbing Miami Center
01:44PM 26.6247 -82.6606 292° West 352 405 29,200 1,500 Climbing Miami Center
01:45PM 26.6667 -82.7647 294° West 358 412 30,000 960 Climbing Miami Center
01:46PM 26.7081 -82.8736 293° West 363 418 31,200 1,200 Climbing Miami Center
01:47PM 26.7511 -82.9875 293° West 376 433 32,400 1,260 Climbing Miami Center
01:48PM 26.7925 -83.0989 293° West 387 445 33,800 1,140 Climbing Miami Center
01:49PM 26.8317 -83.2058 292° West 382 440 34,700 720 Climbing Miami Center
01:50PM 26.8875 -83.3086 301° West 382 440 35,300 660 Climbing Miami Center
01:51PM 26.9625 -83.4061 311° West 393 452 36,100 840 Climbing Miami Center
01:52PM 27.0353 -83.4986 311° West 399 459 37,000 720 Climbing Miami Center
01:53PM 27.0975 -83.6000 305° West 399 459 37,600 600 Climbing Miami Center
01:54PM 27.1419 -83.7169 293° West 399 459 38,200 600 Climbing Miami Center
01:55PM 27.1781 -83.8333 289° West 399 459 38,900 360 Climbing Miami Center
01:56PM 27.2186 -83.9456 292° West 404 465 39,000  Climbing Miami Center
01:57PM 27.2608 -84.0625 292° West 399 459 39,000  Level Miami Center
01:58PM 27.2969 -84.1742 290° West 399 459 39,000  Level Miami Center
01:59PM 27.3389 -84.2889 292° West 399 459 39,000  Level Miami Center
02:00PM 27.3747 -84.4033 289° West 399 459 39,000 120 Level Miami Center
02:01PM 27.4167 -84.5161 293° West 399 459 39,300 360 Climbing Miami Center
02:02PM 27.4972 -84.6103 314° West 399 459 39,800 540 Climbing Miami Center
02:03PM 27.5686 -84.7133 308° West 405 466 40,400 540 Climbing Miami Center
02:04PM 27.5939 -84.8250 284° West 383 441 40,900 480 Climbing Miami Center
02:06PM 27.6528 -85.0008 291° West 390 449 41,600 480 Climbing Jacksonville Center
02:07PM 27.6883 -85.1256 288° West 402 463 42,100 480 Climbing Jacksonville Center
02:08PM 27.7261 -85.2319 292° West 397 457 42,600 420 Climbing Jacksonville Center
02:09PM 27.7636 -85.3431 291° West 387 445 43,000 180 Climbing Jacksonville Center
02:10PM 27.7989 -85.4611 289° West 393 452 43,000  Level Jacksonville Center
02:11PM 27.8364 -85.5678 292° West 393 452 43,000  Level Jacksonville Center
02:12PM 27.8733 -85.6861 289° West 397 457 43,000  Level Jacksonville Center
02:13PM 27.9106 -85.8069 289° West 392 451 43,000  Level Jacksonville Center
02:14PM 27.9453 -85.9253 288° West 392 451 43,000  Level Jacksonville Center
02:15PM 27.9822 -86.0392 290° West 390 449 43,000  Level Jacksonville Center
02:16PM 28.0189 -86.1556 290° West 390 449 43,000  Level Jacksonville Center
02:17PM 28.0556 -86.2694 290° West 395 455 43,000  Level Jacksonville Center
02:18PM 28.0900 -86.3858 289° West 390 449 43,000  Level Jacksonville Center
02:19PM 28.1283 -86.5097 289° West 395 455 43,000  Level Jacksonville Center
02:20PM 28.1544 -86.6189 285° West 387 445 43,000  Level Jacksonville Center
02:21PM 28.1842 -86.7422 285° West 393 452 43,000  Level Jacksonville Center
02:22PM 28.2119 -86.8611 285° West 388 447 43,000  Level Jacksonville Center
02:23PM 28.2417 -86.9778 286° West 388 447 43,000  Level Jacksonville Center
02:24PM 28.2692 -87.0942 285° West 394 453 43,000  Level Jacksonville Center
02:25PM 28.2964 -87.2133 285° West 389 448 43,000  Level Jacksonville Center
02:26PM 28.3203 -87.3086 286° West 389 448 43,000  Level Jacksonville Center
02:27PM 28.3533 -87.4372 286° West 389 448 43,000  Level Jacksonville Center
02:28PM 28.3931 -87.6139 284° West 388 447 43,000  Level Houston Center
02:29PM 28.4208 -87.7331 285° West 388 447 43,000  Level Houston Center
02:30PM 28.4489 -87.8519 285° West 388 447 43,000  Level Houston Center
02:31PM 28.4758 -87.9692 285° West 387 445 43,000  Level Houston Center
02:32PM 28.5033 -88.0886 285° West 388 447 43,000  Level Houston Center
02:33PM 28.5317 -88.2097 285° West 386 444 43,000  Level Houston Center
02:34PM 28.5578 -88.3269 284° West 386 444 43,000  Level Houston Center
02:35PM 28.5903 -88.4700 285° West 386 444 43,000  Level Houston Center
02:36PM 28.6167 -88.5892 284° West 387 445 43,000  Level Houston Center
02:37PM 28.6436 -88.7083 284° West 387 445 43,000  Level Houston Center
02:38PM 28.6706 -88.8261 285° West 387 445 43,000  Level Houston Center
02:39PM 28.6975 -88.9450 285° West 387 445 43,000  Level Houston Center
02:40PM 28.7292 -89.0886 284° West 388 447 43,000  Level Houston Center
02:42PM 28.7553 -89.2064 284° West 387 445 43,000  Level Houston Center
02:43PM 28.7806 -89.3247 284° West 386 444 43,000  Level Houston Center
02:44PM 28.8069 -89.4419 284° West 385 443 43,000  Level Houston Center
02:45PM 28.8331 -89.5606 284° West 385 443 43,000  Level Houston Center
02:46PM 28.8572 -89.6833 283° West 391 450 43,000  Level Houston Center
02:47PM 28.8889 -89.8242 284° West 387 445 43,000  Level Houston Center
02:48PM 28.9144 -89.9417 284° West 386 444 43,000  Level Houston Center
02:49PM 28.9403 -90.0572 284° West 380 437 43,000  Level Houston Center
02:50PM 28.9644 -90.1758 283° West 380 437 43,000  Level Houston Center
02:51PM 28.9897 -90.2928 284° West 380 437 43,000  Level Houston Center
02:52PM 29.0150 -90.4108 284° West 380 437 43,000  Level Houston Center
02:53PM 29.0444 -90.5519 283° West 380 437 43,000  Level Houston Center
02:54PM 29.0700 -90.6689 284° West 380 437 43,000  Level Houston Center
02:55PM 29.0942 -90.7867 283° West 380 437 43,000  Level Houston Center
02:56PM 29.1181 -90.9028 283° West 380 437 43,000  Level Houston Center
02:57PM 29.1419 -91.0200 283° West 380 437 43,000  Level Houston Center
02:58PM 29.1664 -91.1378 283° West 380 437 43,000  Level Houston Center
02:59PM 29.1947 -91.2764 283° West 378 435 43,000  Level Houston Center
03:00PM 29.2189 -91.3942 283° West 378 435 43,000  Level Houston Center
03:01PM 29.2425 -91.5114 283° West 378 435 43,000  Level Houston Center
03:02PM 29.2664 -91.6269 283° West 377 434 43,000 240 Level Houston Center
03:03PM 29.2931 -91.7586 283° West 374 430 43,600 480 Climbing Houston Center
03:04PM 29.3158 -91.8719 283° West 370 426 44,100 360 Climbing Houston Center
03:05PM 29.3369 -91.9836 282° West 364 419 44,400 240 Climbing Houston Center
03:06PM 29.3597 -92.0944 283° West 363 418 44,700 240 Climbing Houston Center
03:07PM 29.3817 -92.2047 283° West 360 414 45,000 120 Climbing Houston Center
03:08PM 29.4033 -92.3156 283° West 358 412 45,000  Level Houston Center
03:09PM 29.4275 -92.4497 282° West 358 412 45,000  Level Houston Center
03:11PM 29.4517 -92.5642 284° West 362 417 45,000  Level Houston Center
03:12PM 29.4731 -92.6761 282° West 362 417 45,000  Level Houston Center
03:13PM 29.4936 -92.7914 282° West 363 418 45,000  Level Houston Center
03:14PM 29.5150 -92.9044 282° West 363 418 45,000  Level Houston Center
03:15PM 29.5381 -93.0178 283° West 363 418 45,000  Level Houston Center
03:16PM 29.5697 -93.1539 285° West 364 419 45,000  Level Houston Center
03:17PM 29.5950 -93.2664 285° West 364 419 45,000  Level Houston Center
03:18PM 29.6211 -93.3792 285° West 364 419 45,000  Level Houston Center
03:19PM 29.6464 -93.4928 284° West 364 419 45,000  Level Houston Center
03:20PM 29.6711 -93.6064 284° West 364 419 45,000  Level Houston Center
03:21PM 29.6964 -93.7200 284° West 364 419 45,000  Level Houston Center
03:22PM 29.7269 -93.8567 284° West 365 420 45,000  Level Houston Center
03:23PM 29.7514 -93.9689 284° West 365 420 45,000  Level Houston Center
03:24PM 29.7761 -94.0817 284° West 364 419 45,000  Level Houston Center
03:25PM 29.8011 -94.1942 284° West 363 418 45,000  Level Houston Center
03:26PM 29.8247 -94.3058 284° West 363 418 45,000  Level Houston Center
03:27PM 29.8492 -94.4181 284° West 362 417 45,000  Level Houston Center
03:28PM 29.8783 -94.5506 284° West 360 414 45,000  Level Houston Center
03:29PM 29.9006 -94.6628 283° West 359 413 45,000  Level Houston Center
03:30PM 29.9258 -94.7750 285° West 359 413 45,000  Level Houston Center
03:31PM 29.9508 -94.8981 283° West 359 413 45,000  Level Houston Center
03:32PM 29.9744 -95.0089 284° West 359 413 45,000  Level Houston Center
03:33PM 29.9983 -95.1194 284° West 359 413 45,000  Level Houston Center
03:34PM 30.0250 -95.2306 286° West 358 412 45,000  Level Houston Center
03:35PM 30.0514 -95.3414 285° West 358 412 45,000  Level Houston Center
03:36PM 30.0794 -95.4603 285° West 358 412 45,000  Level Houston Center
03:37PM 30.1047 -95.5697 285° West 358 412 45,000  Level Houston Center
03:39PM 30.1297 -95.6808 285° West 358 412 45,000  Level Houston Center
03:40PM 30.1597 -95.8128 285° West 358 412 45,000  Level Houston Center
03:41PM 30.1867 -95.9231 286° West 357 411 45,000  Level Houston Center
03:42PM 30.2111 -96.0350 284° West 358 412 45,000  Level Houston Center
03:43PM 30.2367 -96.1472 285° West 357 411 45,000  Level Houston Center
03:44PM 30.2628 -96.2597 285° West 358 412 45,000  Level Houston Center
03:45PM 30.2922 -96.3903 285° West 357 411 45,000  Level Houston Center
03:46PM 30.3172 -96.5042 284° West 358 412 45,000  Level Houston Center
03:47PM 30.3425 -96.6172 285° West 358 412 45,000  Level Houston Center
03:48PM 30.3667 -96.7311 284° West 358 412 45,000  Level Houston Center
03:49PM 30.3931 -96.8444 285° West 360 414 45,000  Level Houston Center
03:50PM 30.4178 -96.9586 284° West 360 414 45,000  Level Houston Center
03:51PM 30.4425 -97.0719 284° West 360 414 45,000  Level Houston Center
03:52PM 30.4683 -97.1875 285° West 360 414 45,000  Level Houston Center
03:53PM 30.4928 -97.3025 284° West 361 415 45,000  Level Houston Center
03:54PM 30.5217 -97.4372 284° West 361 415 45,000  Level Houston Center
03:55PM 30.5458 -97.5536 284° West 363 418 45,000  Level Houston Center
03:56PM 30.5714 -97.6700 284° West 364 419 45,000  Level Houston Center
03:57PM 30.5956 -97.7867 284° West 365 420 45,000  Level Houston Center
03:58PM 30.6217 -97.9042 285° West 370 426 45,000  Level Houston Center
03:59PM 30.6464 -98.0225 284° West 370 426 45,000  Level Houston Center
04:00PM 30.6711 -98.1400 284° West 370 426 45,000  Level Houston Center
04:01PM 30.6986 -98.2781 283° West 371 427 45,000  Level Houston Center
04:02PM 30.7242 -98.3958 284° West 371 427 45,000  Level Houston Center
04:03PM 30.7483 -98.5136 283° West 371 427 45,000  Level Houston Center
04:04PM 30.7731 -98.6325 284° West 372 428 45,000  Level Houston Center
04:05PM 30.7983 -98.7511 284° West 373 429 45,000  Level Houston Center
04:06PM 30.8222 -98.8703 283° West 373 429 45,000  Level Houston Center
04:08PM 30.8461 -98.9894 283° West 373 429 45,000  Level Houston Center
04:09PM 30.8739 -99.1281 283° West 374 430 45,000  Level Houston Center
04:10PM 30.8975 -99.2436 283° West 376 433 45,000  Level Houston Center
04:11PM 30.9206 -99.3617 283° West 376 433 45,000  Level Houston Center
04:12PM 30.9450 -99.4800 284° West 376 433 45,000  Level Houston Center
04:13PM 30.9728 -99.6208 283° West 375 432 45,000  Level Houston Center
04:14PM 30.9967 -99.7378 283° West 372 428 45,000 -60 Level Houston Center
04:15PM 31.0186 -99.8536 282° West 371 427 44,900  Descending Houston Center
04:16PM 31.0414 -99.9706 283° West 372 428 45,000  Climbing Houston Center
04:17PM 31.0647 -100.0906 283° West 379 436 45,000  Level Houston Center
04:18PM 31.0928 -100.2339 283° West 380 437 45,000  Level Houston Center
04:19PM 31.1156 -100.3550 282° West 381 438 45,000  Level Houston Center
04:20PM 31.1389 -100.4775 283° West 384 442 45,000  Level Houston Center
04:21PM 31.1617 -100.5997 282° West 386 444 45,000  Level Houston Center
04:22PM 31.1847 -100.7200 283° West 385 443 45,000  Level Houston Center
04:23PM 31.2064 -100.8406 282° West 384 442 45,000  Level Houston Center
04:24PM 31.2333 -100.9842 282° West 382 440 45,000  Level Houston Center
04:25PM 31.2539 -101.0978 282° West 382 440 45,000  Level Houston Center
04:26PM 31.2767 -101.2169 283° West 381 438 45,000  Level Houston Center
04:27PM 31.3025 -101.3614 282° West 381 438 45,000  Level Houston Center
04:28PM 31.3239 -101.4825 282° West 381 438 45,000  Level Houston Center
04:31PM 31.3769 -101.7703 282° West 380 437 45,000  Level Albuquerque Center
04:32PM 31.3994 -101.8964 282° West 382 440 45,000  Level Albuquerque Center
04:33PM 31.4200 -102.0239 281° West 393 452 45,000  Level Albuquerque Center
04:34PM 31.4411 -102.1450 282° West 385 443 45,000  Level Albuquerque Center
04:35PM 31.4631 -102.2667 282° West 382 440 45,000  Level Albuquerque Center
04:36PM 31.4844 -102.3889 282° West 383 441 45,000  Level Albuquerque Center
04:37PM 31.5069 -102.5206 281° West 380 437 45,000  Level Albuquerque Center
04:38PM 31.5275 -102.6425 281° West 383 441 45,000  Level Albuquerque Center
04:39PM 31.5481 -102.7625 281° West 379 436 45,000  Level Albuquerque Center
04:40PM 31.5731 -102.9083 281° West 382 440 45,000  Level Albuquerque Center
04:41PM 31.5933 -103.0308 281° West 383 441 45,000  Level Albuquerque Center
04:42PM 31.6131 -103.1503 281° West 378 435 45,000  Level Albuquerque Center
04:43PM 31.6322 -103.2717 281° West 379 436 45,000  Level Albuquerque Center
04:44PM 31.6531 -103.3936 281° West 380 437 45,000  Level Albuquerque Center
04:45PM 31.6761 -103.5342 281° West 382 440 45,000  Level Albuquerque Center
04:46PM 31.6961 -103.6561 281° West 381 438 45,000  Level Albuquerque Center
04:47PM 31.7164 -103.7806 281° West 380 437 45,000  Level Albuquerque Center
04:48PM 31.7369 -103.9014 281° West 379 436 45,000  Level Albuquerque Center
04:49PM 31.7572 -104.0239 281° West 382 440 45,000  Level Albuquerque Center
04:50PM 31.7764 -104.1458 281° West 382 440 45,000  Level Albuquerque Center
04:51PM 31.7942 -104.2664 280° West 379 436 45,000  Level Albuquerque Center
04:52PM 31.8189 -104.4150 281° West 385 443 45,000  Level Albuquerque Center
04:53PM 31.8383 -104.5386 281° West 387 445 45,000  Level Albuquerque Center
04:54PM 31.8569 -104.6639 280° West 389 448 45,000  Level Albuquerque Center
04:55PM 31.8761 -104.7889 280° West 391 450 45,000  Level Albuquerque Center
04:56PM 31.8967 -104.9139 281° West 391 450 45,000  Level Albuquerque Center
04:57PM 31.9197 -105.0669 280° West 397 457 45,000  Level Albuquerque Center
04:59PM 31.9386 -105.1967 280° West 401 461 45,000  Level Albuquerque Center
05:00PM 31.9578 -105.3278 280° West 407 468 45,000  Level Albuquerque Center
05:01PM 31.9775 -105.4583 280° West 407 468 45,000  Level Albuquerque Center
05:02PM 31.9964 -105.5883 280° West 406 467 45,000  Level Albuquerque Center
05:03PM 32.0161 -105.7192 280° West 407 468 45,000  Level Albuquerque Center
05:04PM 32.0381 -105.8769 279° West 407 468 45,000  Level Albuquerque Center
05:05PM 32.0575 -106.0036 280° West 408 470 45,000  Level Albuquerque Center
05:06PM 32.0756 -106.1344 279° West 406 467 45,000  Level Albuquerque Center
05:07PM 32.0956 -106.2672 280° West 410 472 45,000  Level Albuquerque Center
05:08PM 32.1139 -106.4003 279° West 412 474 45,000  Level Albuquerque Center
05:09PM 32.1367 -106.5622 279° West 417 480 45,000  Level Albuquerque Center
05:10PM 32.1550 -106.6967 279° West 416 479 45,000  Level Albuquerque Center
05:11PM 32.1742 -106.8331 279° West 418 481 45,000  Level Albuquerque Center
05:12PM 32.1939 -106.9783 279° West 419 482 45,000  Level Albuquerque Center
05:13PM 32.2128 -107.1250 279° West 419 482 45,000  Level Albuquerque Center
05:14PM 32.2283 -107.2367 279° West 421 484 45,000  Level Albuquerque Center
05:15PM 32.2475 -107.4039 278° West 427 491 45,000  Level Albuquerque Center
05:16PM 32.2642 -107.5225 279° West 425 489 45,000  Level Albuquerque Center
05:17PM 32.2953 -107.6878 283° West 428 493 45,000  Level Albuquerque Center
05:18PM 32.3292 -107.8239 286° West 429 494 45,000  Level Albuquerque Center
05:19PM 32.3625 -107.9619 286° West 434 499 45,000 -60 Level Albuquerque Center
05:20PM 32.3975 -108.1008 287° West 439 505 44,900  Descending Albuquerque Center
05:21PM 32.4308 -108.2392 286° West 438 504 45,000  Climbing Albuquerque Center
05:22PM 32.4700 -108.3944 287° West 440 506 45,000  Level Albuquerque Center
05:23PM 32.5036 -108.5342 286° West 441 507 45,000  Level Albuquerque Center
05:24PM 32.5375 -108.6750 286° West 443 510 45,000  Level Albuquerque Center
05:25PM 32.5703 -108.8164 285° West 443 510 45,000  Level Albuquerque Center
05:26PM 32.6036 -108.9564 286° West 440 506 45,000  Level Albuquerque Center
05:27PM 32.6375 -109.0956 286° West 437 503 45,000  Level Albuquerque Center
05:28PM 32.6694 -109.2350 285° West 436 502 45,000  Level Albuquerque Center
05:29PM 32.7083 -109.4003 286° West 433 498 45,000  Level Albuquerque Center
05:31PM 32.7425 -109.5400 286° West 436 502 45,000  Level Albuquerque Center
05:32PM 32.7736 -109.6775 285° West 432 497 45,000  Level Albuquerque Center
05:33PM 32.8064 -109.8153 286° West 432 497 45,000  Level Albuquerque Center
05:34PM 32.8372 -109.9533 285° West 433 498 45,000  Level Albuquerque Center
05:35PM 32.8694 -110.0917 286° West 433 498 45,000  Level Albuquerque Center
05:36PM 32.9000 -110.2283 285° West 430 495 45,000  Level Albuquerque Center
05:37PM 32.9306 -110.3639 285° West 427 491 45,000  Level Albuquerque Center
05:38PM 32.9678 -110.5283 285° West 429 494 45,000  Level Albuquerque Center
05:39PM 32.9981 -110.6658 285° West 429 494 45,000  Level Albuquerque Center
05:40PM 33.0269 -110.7961 285° West 427 491 45,000  Level Albuquerque Center
05:41PM 33.0572 -110.9317 285° West 425 489 45,000  Level Albuquerque Center
05:42PM 33.0864 -111.0656 285° West 419 482 45,000  Level Albuquerque Center
05:43PM 33.1214 -111.2297 284° West 424 488 45,000  Level Albuquerque Center
05:44PM 33.1517 -111.3664 285° West 425 489 45,000  Level Albuquerque Center
05:45PM 33.1806 -111.5022 284° West 423 487 45,000  Level Albuquerque Center
05:46PM 33.2092 -111.6397 284° West 425 489 45,000  Level Albuquerque Center
05:47PM 33.2389 -111.7769 285° West 425 489 45,000  Level Albuquerque Center
05:48PM 33.2678 -111.9147 284° West 425 489 45,000  Level Albuquerque Center
05:49PM 33.2967 -112.0542 284° West 429 494 45,000  Level Albuquerque Center
05:50PM 33.3250 -112.1936 284° West 430 495 45,000  Level Albuquerque Center
05:51PM 33.3594 -112.3622 284° West 433 498 45,000  Level Albuquerque Center
05:52PM 33.3881 -112.5014 284° West 432 497 45,000  Level Albuquerque Center
05:53PM 33.4158 -112.6342 284° West 432 497 45,000  Level Albuquerque Center
05:54PM 33.4439 -112.7719 284° West 431 496 45,000  Level Albuquerque Center
05:55PM 33.4711 -112.9122 283° West 433 498 45,000  Level Albuquerque Center
05:56PM 33.5033 -113.0803 283° West 433 498 45,000  Level Albuquerque Center
05:57PM 33.5303 -113.2203 283° West 434 499 45,000  Level Albuquerque Center
05:58PM 33.5564 -113.3597 283° West 433 498 45,000  Level Albuquerque Center
05:59PM 33.5833 -113.5003 283° West 434 499 45,000  Level Albuquerque Center
06:00PM 33.6128 -113.6528 283° West 435 501 45,000  Level Albuquerque Center
06:01PM 33.6478 -113.7925 287° West 437 503 45,000  Level Albuquerque Center
06:02PM 33.6839 -113.9308 287° West 436 502 45,000  Level Albuquerque Center
06:03PM 33.7178 -114.0689 286° West 434 499 45,000  Level Albuquerque Center
06:05PM 33.7550 -114.2219 286° West 433 498 45,000  Level Albuquerque Center
06:06PM 33.7894 -114.3583 287° West 429 494 45,000  Level Albuquerque Center
06:06PM 33.8067 -114.4269 287° West 430 495 45,000  Level Los Angeles Center
06:07PM 33.8461 -114.5911 286° West 428 493 45,000 -60 Level Los Angeles Center
06:08PM 33.8786 -114.7281 286° West 427 491 44,900  Descending Los Angeles Center
06:10PM 33.9442 -114.9989 286° West 419 482 45,000  Climbing Los Angeles Center
06:11PM 33.9764 -115.1350 286° West 422 486 45,000  Level Los Angeles Center
06:12PM 34.0094 -115.2714 286° West 425 489 45,000  Level Los Angeles Center
06:13PM 34.0408 -115.4081 286° West 425 489 45,000  Level Los Angeles Center
06:14PM 34.0794 -115.5739 286° West 429 494 45,000  Level Los Angeles Center
06:15PM 34.1122 -115.7117 286° West 430 495 45,000  Level Los Angeles Center
06:16PM 34.1433 -115.8506 285° West 429 494 45,000  Level Los Angeles Center
06:17PM 34.1794 -116.0031 286° West 426 490 45,000  Level Los Angeles Center
06:18PM 34.2108 -116.1411 285° West 427 491 45,000  Level Los Angeles Center
06:20PM 34.2419 -116.2806 285° West 429 494 45,000  Level Los Angeles Center
06:21PM 34.2742 -116.4178 286° West 427 491 45,000  Level Los Angeles Center
06:22PM 34.3047 -116.5581 285° West 430 495 45,000  Level Los Angeles Center
06:23PM 34.3356 -116.6978 285° West 431 496 45,000  Level Los Angeles Center
06:24PM 34.3739 -116.8669 285° West 435 501 45,000  Level Los Angeles Center
06:25PM 34.4050 -117.0086 285° West 434 499 45,000  Level Los Angeles Center
06:26PM 34.4356 -117.1492 285° West 431 496 45,000  Level Los Angeles Center
06:27PM 34.4656 -117.2883 285° West 428 493 45,000  Level Los Angeles Center
06:28PM 34.4961 -117.4275 285° West 426 490 45,000  Level Los Angeles Center
06:29PM 34.5258 -117.5675 284° West 427 491 45,000  Level Los Angeles Center
06:30PM 34.5547 -117.7056 284° West 423 487 45,000  Level Los Angeles Center
06:31PM 34.5911 -117.8703 285° West 420 483 45,000  Level Los Angeles Center
06:32PM 34.6203 -118.0064 285° West 417 480 45,000  Level Los Angeles Center
06:33PM 34.6750 -118.1275 299° West 412 474 45,000  Level Los Angeles Center
06:34PM 34.7483 -118.2300 311° West 401 461 45,000  Level Los Angeles Center
06:35PM 34.8272 -118.3275 315° West 403 464 45,000  Level Los Angeles Center
06:36PM 34.9047 -118.4247 314° West 401 461 45,000  Level Los Angeles Center
06:37PM 34.9922 -118.5336 314° West 402 463 45,000  Level Los Angeles Center
06:38PM 35.0697 -118.6308 314° West 403 464 45,000  Level Los Angeles Center
06:39PM 35.1472 -118.7275 314° West 401 461 45,000  Level Los Angeles Center
06:40PM 35.2408 -118.8456 314° West 405 466 45,000  Level Los Angeles Center
06:41PM 35.3172 -118.9439 314° West 403 464 45,000  Level Los Angeles Center
06:42PM 35.3964 -119.0417 315° West 404 465 45,000  Level Los Angeles Center
06:43PM 35.4744 -119.1406 314° West 405 466 45,000  Level Los Angeles Center
06:44PM 35.5497 -119.2406 313° West 403 464 45,000  Level Los Angeles Center
06:45PM 35.6247 -119.3383 313° West 397 457 45,000  Level Los Angeles Center
06:46PM 35.6878 -119.4197 314° West 406 467 45,000  Level Oakland Center
06:47PM 35.7650 -119.5200 314° West 404 465 45,000 -60 Level Oakland Center
06:48PM 35.8583 -119.6411 314° West 408 470 44,900  Descending Oakland Center
06:49PM 35.9369 -119.7428 314° West 413 475 45,000  Climbing Oakland Center
06:50PM 36.0156 -119.8464 313° West 415 478 44,900 -840 Descending Oakland Center
06:51PM 36.0933 -119.9464 314° West 409 471 43,400 -1,560 Descending Oakland Center
06:52PM 36.1692 -120.0464 313° West 404 465 41,800 -1,740 Descending Oakland Center
06:53PM 36.2419 -120.1411 314° West 388 447 39,900 -1,980 Descending Oakland Center
06:54PM 36.3136 -120.2369 313° West 383 441 37,800 -2,100 Descending Oakland Center
06:55PM 36.3856 -120.3347 312° West 384 442 35,700 -2,100 Descending Oakland Center
06:56PM 36.4594 -120.4317 313° West 386 444 33,600 -2,460 Descending Oakland Center
06:57PM 36.5528 -120.5575 313° West 406 467 30,800 -2,520 Descending Oakland Center
06:58PM 36.6317 -120.6639 313° West 417 480 28,500 -2,280 Descending Oakland Center
06:59PM 36.7100 -120.7725 312° West 420 483 26,200 -2,220 Descending Oakland Center
07:00PM 36.7947 -120.8694 318° Northwest 419 482 24,000 -2,160 Descending Oakland Center
07:01PM 36.8692 -120.9597 316° Northwest 395 455 21,900 -2,220 Descending Oakland Center
07:02PM 36.9486 -121.0492 318° Northwest 386 444 19,600 -2,100 Descending Oakland Center
07:03PM 37.0233 -121.1372 317° Northwest 371 427 17,700 -2,100 Descending Oakland Center
07:05PM 37.1075 -121.2339 318° Northwest 344 396 15,400 -2,040 Descending Oakland Center
07:06PM 37.1767 -121.3125 318° Northwest 336 387 13,600 -1,860 Descending Oakland Center
07:07PM 37.2464 -121.3928 318° Northwest 338 389 11,700 -1,740 Descending Oakland Center
07:08PM 37.3061 -121.4639 317° Northwest 301 346 10,100 -1,560 Descending Oakland Center
07:09PM 37.3633 -121.5306 317° Northwest 277 319 8,600 -1,500 Descending Oakland Center
07:09PM 37.4167 -121.5833 322° Northwest 280 322 7,400 -1,500 Descending Northern Cal TRACON
07:10PM 37.4667 -121.6500 313° West 268 308 6,000 -720 Descending Northern Cal TRACON
07:11PM 37.5000 -121.7333 297° West 261 300 6,000 -360 Level Northern Cal TRACON
07:12PM 37.5333 -121.8000 302° West 255 293 5,300 -780 Descending Northern Cal TRACON
07:13PM 37.5667 -121.8833 297° West 255 293 4,500 -660 Descending Northern Cal TRACON
07:14PM 37.6000 -121.9500 302° West 220 253 4,000 -600 Descending Northern Cal TRACON
07:15PM 37.6333 -122.0167 302° West 202 232 3,300 -720 Descending Northern Cal TRACON
07:16PM 37.6667 -122.0667 310° West 192 221 2,600 -900 Descending Northern Cal TRACON
07:17PM 37.7000 -122.1333 302° West 185 213 1,500 -1,020 Descending Northern Cal TRACON
07:18PM 37.7167 -122.1667 302° West 132 152 600 -900 Descending Northern Cal TRACON
07:21PM 37.7167 -122.2167 270° West  Level FlightAware Approximate
07:28PM 37.7213 -122.2212 270° West  Level Estimated